Battle, United Kingdom
Current Conditions -  °F | °C
As of 4:20 PM on Friday 21 Nov 2014 (Local Time) from EGMD Reporting Station
Scattered Clouds Scattered Clouds  
Wind Chill: 43°   Ceiling: Unl
Heat Index: 48°   Visibility: 4mi
Dew Point: 46°   Wind: 13mph
Humidity: 93%   Direction: 110°ESE
Pressure: 30"   Gusts: NA
Location:  50.92°N, 0.48°E
Report Text: EGMD 211620Z 11011KT 7000 SCT010 09/08 Q1016
Loading
Personal Weather Stations






























Interactive Weather Map New forecast layout! Learn more

10-Day Weather Forecast

Advertisements
Track Severe Weather on mobile